Terminal Aerodrome Forecast
Issued by NWS Des Moines, IA

Home | Current Version | Previous Version | Text Only | Print | Product List | Glossary On
Versions: 1 2 3 4 5 6 7 8 9 10 11 12 13 14 15 16 17 18 19 20 21 22 23 24 25 26 27 28 29 30 31 32 33 34
000
FTUS43 KDMX 012004 AAA
TAFALO
TAF AMD
KALO 012004Z 0120/0218 17010KT P6SM VCSH SCT012 SCT025 OVC050
      TEMPO 0120/0122 SCT015 BKN022
     FM020300 VRB03KT 4SM BR BKN006
     FM020800 VRB03KT 2SM BR SCT004 BKN005
     FM021400 03005KT 5SM BR SCT005 BKN010=

USA.gov is the U.S. government's official web portal to all federal, state and local government web resources and services.